createdAt,value
2019-04-29T00:02:22.877Z,8.73
2019-04-29T00:04:52.958Z,6.78
2019-04-29T00:07:23.127Z,6.22
2019-04-29T00:09:53.050Z,8.83
2019-04-29T00:12:23.506Z,10.10
2019-04-29T00:15:07.101Z,8.33
2019-04-29T00:17:52.670Z,8.08
2019-04-29T00:20:30.805Z,8.13
2019-04-29T00:23:01.779Z,7.40
2019-04-29T00:25:32.178Z,8.10
2019-04-29T00:28:02.458Z,8.18
2019-04-29T00:30:32.395Z,9.48
2019-04-29T00:33:02.932Z,7.35
2019-04-29T00:35:33.162Z,11.05
2019-04-29T00:38:21.998Z,6.78
2019-04-29T00:41:11.465Z,13.05
2019-04-29T00:43:51.828Z,11.33
2019-04-29T00:46:22.220Z,7.85
2019-04-29T00:48:52.393Z,9.85
2019-04-29T00:51:23.964Z,10.08
2019-04-29T00:53:57.904Z,11.68
2019-04-29T00:56:28.074Z,7.72
2019-04-29T00:58:57.826Z,6.92
2019-04-29T01:01:27.928Z,10.18
2019-04-29T01:04:03.543Z,10.25
2019-04-29T01:06:39.208Z,9.90
2019-04-29T01:09:16.510Z,9.45
2019-04-29T01:11:52.264Z,7.35
2019-04-29T01:14:30.338Z,10.60
2019-04-29T01:17:07.853Z,10.15
2019-04-29T01:19:42.854Z,7.33
2019-04-29T01:22:19.110Z,9.03
2019-04-29T01:24:54.156Z,11.78
2019-04-29T01:27:34.473Z,6.83
2019-04-29T01:30:09.512Z,7.80
2019-04-29T01:32:50.878Z,11.50
2019-04-29T01:35:26.832Z,9.88
2019-04-29T01:38:03.410Z,10.43
2019-04-29T01:41:03.662Z,8.33
2019-04-29T01:44:09.523Z,6.70
2019-04-29T01:46:46.421Z,10.55
2019-04-29T01:49:20.579Z,10.58
2019-04-29T01:51:58.170Z,10.58
2019-04-29T01:54:33.799Z,9.55
2019-04-29T01:57:12.884Z,11.00
2019-04-29T01:59:52.323Z,9.43
2019-04-29T02:02:25.098Z,10.03
2019-04-29T02:04:57.808Z,8.98
2019-04-29T02:07:31.302Z,7.92
2019-04-29T02:10:13.041Z,11.20
2019-04-29T02:12:45.789Z,11.05
2019-04-29T02:15:18.787Z,10.82
2019-04-29T02:17:50.862Z,11.55
2019-04-29T02:20:23.256Z,9.98
2019-04-29T02:23:12.470Z,6.12
2019-04-29T02:25:46.797Z,9.23
2019-04-29T02:28:19.867Z,8.53
2019-04-29T02:30:52.719Z,10.85
2019-04-29T02:33:25.396Z,9.18
2019-04-29T02:35:59.278Z,10.40
2019-04-29T02:38:40.605Z,9.73
2019-04-29T02:41:30.981Z,7.60
2019-04-29T02:44:05.009Z,8.30
2019-04-29T02:46:37.871Z,12.35
2019-04-29T02:49:10.230Z,9.60
2019-04-29T02:51:50.499Z,8.10
2019-04-29T02:54:24.037Z,8.50
2019-04-29T02:57:06.424Z,7.95
2019-04-29T02:59:43.257Z,9.43
2019-04-29T03:02:34.943Z,8.00
2019-04-29T03:05:19.253Z,7.42
2019-04-29T03:07:52.163Z,11.22
2019-04-29T03:10:25.330Z,10.00
2019-04-29T03:12:58.336Z,9.65
2019-04-29T03:15:35.677Z,10.95
2019-04-29T03:18:06.030Z,9.23
2019-04-29T03:21:10.701Z,7.90
2019-04-29T03:23:40.888Z,9.78
2019-04-29T03:26:11.119Z,7.05
2019-04-29T03:28:41.239Z,8.73
2019-04-29T03:31:11.360Z,7.62
2019-04-29T03:33:41.245Z,10.15
2019-04-29T03:36:11.368Z,13.22
2019-04-29T03:38:41.256Z,12.55
2019-04-29T03:41:11.573Z,10.13
2019-04-29T03:43:41.750Z,9.88
2019-04-29T03:46:12.102Z,9.83
2019-04-29T03:48:41.897Z,10.90
2019-04-29T03:51:12.091Z,10.15
2019-04-29T03:53:42.069Z,10.72
2019-04-29T03:56:11.902Z,8.90
2019-04-29T03:58:41.873Z,10.50
2019-04-29T04:01:24.535Z,10.03
2019-04-29T04:04:02.151Z,9.73
2019-04-29T04:06:49.571Z,10.20
2019-04-29T04:09:31.416Z,12.50
2019-04-29T04:12:01.228Z,12.60
2019-04-29T04:14:31.091Z,11.12
2019-04-29T04:17:11.405Z,8.40
2019-04-29T04:19:41.916Z,12.30
2019-04-29T04:22:11.785Z,12.95
2019-04-29T04:24:41.633Z,12.50
2019-04-29T04:27:11.501Z,12.30
2019-04-29T04:29:41.650Z,9.68
2019-04-29T04:32:12.069Z,9.45
2019-04-29T04:34:42.287Z,11.48
2019-04-29T04:37:12.527Z,9.70
2019-04-29T04:39:44.019Z,7.85
2019-04-29T04:42:14.286Z,12.47
2019-04-29T04:44:50.354Z,11.65
2019-04-29T04:47:21.119Z,7.92
2019-04-29T04:49:51.547Z,9.43
2019-04-29T04:52:21.507Z,11.30
2019-04-29T04:54:53.172Z,9.73
2019-04-29T04:57:23.017Z,10.15
2019-04-29T04:59:52.829Z,8.38
2019-04-29T05:02:24.995Z,11.50
2019-04-29T05:04:55.534Z,9.60
2019-04-29T05:07:25.400Z,7.47
2019-04-29T05:09:55.369Z,8.88
2019-04-29T05:12:25.366Z,9.30
2019-04-29T05:14:55.890Z,9.63
2019-04-29T05:17:28.160Z,10.72
2019-04-29T05:19:58.044Z,8.10
2019-04-29T05:22:28.433Z,10.40
2019-04-29T05:24:58.642Z,11.40
2019-04-29T05:27:29.005Z,7.37
2019-04-29T05:29:58.970Z,6.87
2019-04-29T05:32:29.219Z,8.18
2019-04-29T05:35:01.767Z,11.05
2019-04-29T05:37:41.377Z,10.72
2019-04-29T05:40:14.484Z,10.18
2019-04-29T05:42:48.289Z,8.45
2019-04-29T05:45:25.414Z,9.23
2019-04-29T05:48:06.172Z,9.95
2019-04-29T05:50:43.448Z,9.05
2019-04-29T05:53:24.655Z,10.63
2019-04-29T05:55:54.490Z,9.78
2019-04-29T05:58:24.502Z,8.10
2019-04-29T06:01:13.825Z,8.23
2019-04-29T06:03:45.746Z,12.03
2019-04-29T06:06:15.814Z,10.50
2019-04-29T06:08:46.040Z,12.90
2019-04-29T06:11:15.912Z,9.68
2019-04-29T06:13:46.162Z,13.90
2019-04-29T06:16:20.853Z,11.70
2019-04-29T06:18:47.630Z,9.58
2019-04-29T06:21:17.587Z,8.15
2019-04-29T06:23:47.756Z,11.60
2019-04-29T06:26:17.607Z,11.08
2019-04-29T06:28:48.015Z,9.35
2019-04-29T06:31:17.979Z,11.73
2019-04-29T06:33:48.185Z,10.88
2019-04-29T06:36:18.022Z,12.37
2019-04-29T06:38:49.572Z,9.73
2019-04-29T06:41:19.464Z,9.93
2019-04-29T06:43:52.401Z,10.70
2019-04-29T06:46:21.425Z,9.83
2019-04-29T06:48:52.737Z,8.88
2019-04-29T06:51:22.710Z,11.85
2019-04-29T06:53:53.326Z,9.73
2019-04-29T06:56:23.387Z,8.73
2019-04-29T06:58:53.429Z,10.32
2019-04-29T07:01:23.273Z,15.28
2019-04-29T07:03:55.829Z,11.85
2019-04-29T07:06:25.079Z,17.52
2019-04-29T07:08:54.835Z,12.98
2019-04-29T07:11:25.499Z,11.20
2019-04-29T07:13:57.563Z,13.32
2019-04-29T07:16:31.781Z,10.65
2019-04-29T07:18:59.108Z,12.55
2019-04-29T07:21:33.239Z,7.90
2019-04-29T07:24:03.595Z,10.82
2019-04-29T07:26:33.451Z,9.40
2019-04-29T07:29:03.807Z,13.03
2019-04-29T07:31:35.270Z,10.25
2019-04-29T07:34:08.314Z,12.50
2019-04-29T07:36:37.792Z,16.17
2019-04-29T07:39:08.661Z,11.43
2019-04-29T07:41:41.952Z,12.00
2019-04-29T07:44:13.837Z,12.60
2019-04-29T07:46:56.880Z,14.20
2019-04-29T07:49:23.847Z,13.75
2019-04-29T07:51:53.779Z,12.18
2019-04-29T07:54:23.931Z,13.85
2019-04-29T07:56:54.445Z,10.70
2019-04-29T07:59:24.669Z,12.43
2019-04-29T08:01:55.585Z,9.35
2019-04-29T08:04:27.064Z,13.78
2019-04-29T08:06:56.955Z,8.73
2019-04-29T08:09:26.752Z,12.07
2019-04-29T08:11:56.978Z,10.20
2019-04-29T08:14:27.377Z,12.13
2019-04-29T08:16:57.785Z,10.75
2019-04-29T08:19:29.592Z,9.18
2019-04-29T08:21:59.295Z,10.53
2019-04-29T08:24:29.150Z,9.73
2019-04-29T08:26:59.791Z,12.47
2019-04-29T08:29:30.790Z,12.68
2019-04-29T08:32:02.485Z,12.55
2019-04-29T08:34:32.872Z,13.50
2019-04-29T08:37:02.613Z,10.20
2019-04-29T08:39:32.404Z,15.03
2019-04-29T08:42:08.855Z,13.28
2019-04-29T08:44:54.649Z,14.18
2019-04-29T08:47:31.615Z,13.35
2019-04-29T08:50:00.469Z,13.38
2019-04-29T08:52:30.747Z,17.42
2019-04-29T08:55:00.692Z,15.45
2019-04-29T08:57:31.713Z,11.00
2019-04-29T09:00:02.987Z,13.40
2019-04-29T09:02:35.434Z,14.18
2019-04-29T09:05:06.859Z,13.68
2019-04-29T09:07:39.602Z,14.78
2019-04-29T09:10:09.429Z,12.95
2019-04-29T09:12:39.227Z,12.25
2019-04-29T09:15:12.145Z,14.20
2019-04-29T09:17:42.074Z,16.95
2019-04-29T09:20:12.867Z,11.65
2019-04-29T09:22:47.443Z,13.18
2019-04-29T09:25:28.510Z,9.90
2019-04-29T09:27:59.974Z,8.55
2019-04-29T09:30:30.342Z,13.05
2019-04-29T09:33:00.203Z,12.45
2019-04-29T09:35:33.793Z,11.78
2019-04-29T09:38:01.843Z,11.85
2019-04-29T09:40:34.222Z,11.78
2019-04-29T09:43:25.866Z,9.55
2019-04-29T09:46:18.650Z,11.18
2019-04-29T09:48:49.127Z,12.37
2019-04-29T09:51:22.881Z,10.50
2019-04-29T09:53:50.843Z,11.03
2019-04-29T09:56:21.014Z,9.80
2019-04-29T09:58:53.847Z,9.48
2019-04-29T10:01:41.650Z,8.18
2019-04-29T10:04:28.932Z,8.75
2019-04-29T10:06:59.256Z,9.85
2019-04-29T10:09:30.217Z,9.38
2019-04-29T10:12:00.328Z,9.18
2019-04-29T10:14:30.294Z,10.60
2019-04-29T10:17:16.705Z,15.45
2019-04-29T10:20:09.658Z,8.25
2019-04-29T10:22:39.719Z,10.60
2019-04-29T10:25:10.062Z,9.88
2019-04-29T10:27:40.975Z,7.58
2019-04-29T10:30:10.759Z,8.30
2019-04-29T10:32:42.387Z,8.63
2019-04-29T10:35:13.706Z,10.10
2019-04-29T10:37:43.723Z,8.30
2019-04-29T10:40:24.447Z,7.53
2019-04-29T10:43:17.218Z,6.12
2019-04-29T10:46:08.451Z,7.28
2019-04-29T10:48:44.522Z,6.78
2019-04-29T10:51:16.379Z,7.87
2019-04-29T10:53:46.593Z,5.40
2019-04-29T10:56:18.317Z,6.05
2019-04-29T10:58:48.465Z,7.15
2019-04-29T11:02:19.194Z,7.25
2019-04-29T11:04:52.228Z,8.93
2019-04-29T11:07:30.709Z,7.62
2019-04-29T11:10:09.051Z,8.78
2019-04-29T11:12:40.170Z,9.00
2019-04-29T11:15:14.058Z,10.82
2019-04-29T11:17:44.674Z,10.43
2019-04-29T11:20:15.799Z,10.43
2019-04-29T11:22:51.513Z,8.23
2019-04-29T11:25:51.159Z,11.20
2019-04-29T11:28:18.777Z,8.43
2019-04-29T11:30:49.847Z,9.95
2019-04-29T11:33:40.212Z,11.20
2019-04-29T11:36:13.397Z,8.50
2019-04-29T11:38:44.759Z,7.58
2019-04-29T11:41:19.879Z,11.43
2019-04-29T11:43:50.873Z,13.30
2019-04-29T11:46:21.065Z,13.58
2019-04-29T11:48:52.414Z,10.48
2019-04-29T11:51:41.360Z,10.13
2019-04-29T11:54:08.357Z,11.80
2019-04-29T11:56:39.727Z,12.40
2019-04-29T11:59:42.320Z,11.43
2019-04-29T12:02:44.576Z,11.75
2019-04-29T12:05:23.163Z,11.60
2019-04-29T12:07:53.459Z,12.73
2019-04-29T12:10:24.901Z,12.45
2019-04-29T12:12:54.999Z,9.88
2019-04-29T12:15:38.633Z,11.25
2019-04-29T12:18:27.487Z,8.43
2019-04-29T12:21:12.979Z,11.45
2019-04-29T12:23:47.657Z,12.95
2019-04-29T12:26:18.131Z,11.85
2019-04-29T12:28:48.112Z,17.73
2019-04-29T12:31:40.667Z,13.68
2019-04-29T12:34:35.403Z,14.50
2019-04-29T12:37:11.481Z,10.32
2019-04-29T12:40:16.036Z,12.07
2019-04-29T12:43:04.748Z,10.48
2019-04-29T12:45:45.225Z,11.68
2019-04-29T12:48:24.566Z,11.35
2019-04-29T12:50:47.606Z,12.43
2019-04-29T12:53:17.926Z,11.20
2019-04-29T12:55:53.390Z,10.20
2019-04-29T12:58:24.344Z,9.45
2019-04-29T13:00:59.917Z,11.80
2019-04-29T13:03:42.337Z,11.80
2019-04-29T13:06:23.966Z,12.82
2019-04-29T13:08:57.348Z,14.98
2019-04-29T13:11:37.418Z,14.40
2019-04-29T13:14:01.912Z,16.37
2019-04-29T13:16:59.175Z,11.60
2019-04-29T13:19:38.169Z,12.75
2019-04-29T13:22:10.594Z,13.48
2019-04-29T13:24:42.675Z,11.18
2019-04-29T13:27:16.388Z,12.05
2019-04-29T13:29:43.474Z,11.95
2019-04-29T13:32:13.616Z,14.18
2019-04-29T13:34:45.742Z,15.08
2019-04-29T13:37:19.050Z,14.70
2019-04-29T13:39:47.709Z,15.43
2019-04-29T13:42:17.659Z,21.55
2019-04-29T13:45:05.172Z,20.62
2019-04-29T13:47:50.226Z,15.65
2019-04-29T13:50:38.260Z,19.85
2019-04-29T13:52:54.614Z,17.40
2019-04-29T13:55:47.237Z,19.37
2019-04-29T13:57:59.626Z,18.77
2019-04-29T14:00:38.876Z,18.45
2019-04-29T14:03:14.572Z,20.62
2019-04-29T14:05:45.362Z,20.60
2019-04-29T14:08:15.283Z,18.17
2019-04-29T14:10:46.814Z,15.95
2019-04-29T14:13:20.828Z,18.80
2019-04-29T14:15:49.120Z,17.40
2019-04-29T14:18:19.256Z,21.35
2019-04-29T14:20:51.770Z,19.62
2019-04-29T14:23:20.690Z,18.75
2019-04-29T14:25:50.626Z,16.93
2019-04-29T14:28:36.374Z,15.70
2019-04-29T14:31:18.558Z,17.52
2019-04-29T14:34:05.004Z,16.73
2019-04-29T14:36:37.841Z,17.37
2019-04-29T14:39:18.943Z,16.52
2019-04-29T14:41:58.397Z,16.42
2019-04-29T14:44:52.666Z,16.07
2019-04-29T14:47:48.934Z,19.23
2019-04-29T14:50:38.172Z,18.07
2019-04-29T14:53:12.247Z,17.67
2019-04-29T14:55:45.916Z,19.02
2019-04-29T14:58:18.199Z,27.20
2019-04-29T15:01:16.501Z,26.35
2019-04-29T15:04:17.971Z,19.20
2019-04-29T15:06:52.932Z,16.60
2019-04-29T15:09:45.879Z,16.62
2019-04-29T15:12:24.176Z,19.82
2019-04-29T15:15:18.988Z,18.00
2019-04-29T15:18:00.982Z,18.30
2019-04-29T15:20:56.289Z,18.65
2019-04-29T15:23:28.794Z,19.85
2019-04-29T15:26:08.202Z,18.37
2019-04-29T15:28:54.597Z,19.05
2019-04-29T15:31:25.614Z,20.02
2019-04-29T15:33:57.588Z,24.50
2019-04-29T15:36:34.868Z,20.02
2019-04-29T15:39:13.039Z,21.37
2019-04-29T15:41:50.413Z,21.25
2019-04-29T15:44:23.003Z,21.07
2019-04-29T15:46:59.272Z,21.30
2019-04-29T15:49:38.260Z,23.22
2019-04-29T15:52:21.133Z,20.17
2019-04-29T15:54:58.755Z,18.75
2019-04-29T15:57:32.631Z,18.73
2019-04-29T16:00:21.200Z,17.20
2019-04-29T16:02:50.183Z,22.07
2019-04-29T16:05:54.045Z,18.02
2019-04-29T16:08:29.570Z,15.93
2019-04-29T16:11:20.129Z,18.23
2019-04-29T16:14:08.367Z,21.33
2019-04-29T16:16:23.552Z,20.55
2019-04-29T16:18:53.762Z,16.30
2019-04-29T16:21:23.756Z,16.82
2019-04-29T16:23:57.571Z,19.73
2019-04-29T16:26:30.142Z,19.92
2019-04-29T16:28:57.898Z,19.45
2019-04-29T16:31:27.755Z,18.42
2019-04-29T16:33:58.042Z,18.50
2019-04-29T16:36:28.215Z,18.45
2019-04-29T16:38:58.516Z,17.37
2019-04-29T16:42:02.838Z,19.75
2019-04-29T16:44:36.243Z,19.50
2019-04-29T16:47:07.371Z,14.58
2019-04-29T16:49:38.835Z,18.30
2019-04-29T16:52:08.850Z,20.32
2019-04-29T16:54:39.084Z,25.02
2019-04-29T16:57:09.395Z,21.35
2019-04-29T16:59:39.383Z,14.35
2019-04-29T17:02:09.721Z,21.12
2019-04-29T17:04:40.241Z,21.73
2019-04-29T17:07:29.381Z,18.30
2019-04-29T17:10:18.594Z,18.77
2019-04-29T17:12:52.347Z,22.80
2019-04-29T17:15:25.386Z,18.73
2019-04-29T17:17:55.601Z,19.57
2019-04-29T17:20:30.222Z,16.10
2019-04-29T17:23:00.452Z,16.32
2019-04-29T17:25:30.241Z,15.70
2019-04-29T17:28:24.259Z,16.12
2019-04-29T17:31:11.657Z,18.17
2019-04-29T17:33:49.864Z,18.65
2019-04-29T17:36:23.615Z,18.15
2019-04-29T17:38:50.755Z,17.60
2019-04-29T17:41:20.956Z,15.80
2019-04-29T17:44:09.121Z,18.60
2019-04-29T17:47:11.486Z,16.23
2019-04-29T17:49:48.221Z,21.30
2019-04-29T17:52:25.968Z,16.12
2019-04-29T17:57:37.926Z,17.45
2019-04-29T18:03:15.278Z,18.73
2019-04-29T18:05:55.293Z,16.90
2019-04-29T18:08:41.611Z,20.72
2019-04-29T18:11:11.668Z,15.10
2019-04-29T18:13:41.721Z,17.20
2019-04-29T18:16:19.131Z,22.75
2019-04-29T18:19:05.541Z,19.23
2019-04-29T18:21:54.065Z,16.80
2019-04-29T18:24:34.123Z,19.17
2019-04-29T18:27:07.839Z,17.42
2019-04-29T18:29:41.509Z,18.00
2019-04-29T18:32:09.436Z,15.48
2019-04-29T18:34:39.807Z,22.05
2019-04-29T18:37:09.816Z,18.77
2019-04-29T18:39:40.089Z,17.30
2019-04-29T18:42:12.229Z,21.00
2019-04-29T18:44:56.538Z,21.65
2019-04-29T18:47:22.603Z,21.05
2019-04-29T18:49:47.326Z,25.43
2019-04-29T18:52:25.338Z,24.43
2019-04-29T18:54:49.283Z,27.32
2019-04-29T18:57:27.666Z,25.40
2019-04-29T18:59:52.409Z,26.23
2019-04-29T19:02:22.319Z,20.82
2019-04-29T19:04:58.172Z,22.48
2019-04-29T19:07:31.833Z,19.82
2019-04-29T19:10:01.415Z,23.77
2019-04-29T19:12:32.717Z,19.48
2019-04-29T19:15:10.010Z,22.58
2019-04-29T19:17:39.701Z,22.58
2019-04-29T19:20:08.615Z,19.75
2019-04-29T19:22:39.941Z,23.12
2019-04-29T19:25:11.818Z,27.93
2019-04-29T19:27:42.010Z,22.60
2019-04-29T19:30:16.231Z,22.93
2019-04-29T19:32:46.638Z,28.47
2019-04-29T19:35:16.984Z,26.15
2019-04-29T19:37:47.172Z,35.65
2019-04-29T19:40:19.673Z,29.42
2019-04-29T19:42:49.606Z,31.65
2019-04-29T19:45:19.860Z,31.10
2019-04-29T19:47:53.151Z,28.57
2019-04-29T19:50:21.532Z,30.40
2019-04-29T19:52:55.431Z,25.68
2019-04-29T19:55:25.252Z,29.00
2019-04-29T19:57:56.371Z,27.73
2019-04-29T20:00:29.473Z,32.15
2019-04-29T20:02:59.172Z,34.05
2019-04-29T20:05:42.192Z,34.67
2019-04-29T20:08:21.596Z,32.20
2019-04-29T20:10:51.042Z,35.30
2019-04-29T20:13:18.257Z,35.08
2019-04-29T20:16:12.384Z,31.25
2019-04-29T20:19:02.500Z,29.95
2019-04-29T20:21:36.199Z,37.23
2019-04-29T20:24:09.630Z,35.58
2019-04-29T20:26:38.962Z,34.45
2019-04-29T20:29:09.846Z,32.53
2019-04-29T20:31:48.653Z,35.92
2019-04-29T20:34:12.701Z,38.17
2019-04-29T20:36:43.133Z,36.45
2019-04-29T20:39:16.956Z,41.05
2019-04-29T20:41:48.734Z,31.52
2019-04-29T20:44:17.908Z,36.10
2019-04-29T20:47:13.009Z,30.60
2019-04-29T20:49:19.471Z,31.60
2019-04-29T20:51:52.977Z,30.50
2019-04-29T20:54:26.152Z,31.30
2019-04-29T20:57:02.919Z,30.72
2019-04-29T20:59:28.469Z,26.85
2019-04-29T21:02:12.039Z,30.12
2019-04-29T21:04:39.251Z,29.50
2019-04-29T21:07:07.037Z,32.33
2019-04-29T21:09:37.358Z,26.70
2019-04-29T21:12:38.225Z,28.57
2019-04-29T21:15:14.957Z,29.63
2019-04-29T21:17:43.087Z,31.97
2019-04-29T21:20:13.368Z,29.63
2019-04-29T21:22:45.454Z,33.85
2019-04-29T21:25:16.605Z,28.90
2019-04-29T21:27:48.521Z,32.10
2019-04-29T21:30:18.542Z,33.42
2019-04-29T21:32:48.503Z,27.48
2019-04-29T21:35:27.013Z,29.12
2019-04-29T21:38:23.358Z,32.23
2019-04-29T21:41:02.463Z,37.90
2019-04-29T21:43:35.442Z,30.52
2019-04-29T21:46:05.973Z,31.30
2019-04-29T21:48:37.378Z,27.58
2019-04-29T21:51:11.197Z,35.48
2019-04-29T21:53:40.668Z,36.50
2019-04-29T21:56:10.578Z,35.40
2019-04-29T21:58:40.762Z,32.70
2019-04-29T22:01:11.224Z,28.87
2019-04-29T22:03:42.786Z,34.00
2019-04-29T22:06:12.643Z,30.92
2019-04-29T22:08:42.618Z,29.55
2019-04-29T22:11:13.514Z,28.05
2019-04-29T22:13:45.285Z,31.23
2019-04-29T22:16:17.190Z,32.65
2019-04-29T22:18:52.095Z,32.63
2019-04-29T22:21:21.941Z,30.12
2019-04-29T22:23:52.372Z,28.62
2019-04-29T22:26:23.350Z,31.48
2019-04-29T22:29:01.798Z,34.18
2019-04-29T22:31:33.519Z,28.75
2019-04-29T22:33:58.437Z,28.52
2019-04-29T22:36:28.200Z,29.25
2019-04-29T22:38:58.470Z,31.27
2019-04-29T22:41:48.726Z,37.00
2019-04-29T22:44:21.888Z,33.45
2019-04-29T22:46:53.257Z,32.60
2019-04-29T22:49:27.212Z,33.70
2019-04-29T22:51:57.139Z,31.65
2019-04-29T22:54:26.694Z,31.15
2019-04-29T22:56:56.839Z,28.00
2019-04-29T22:59:27.578Z,27.98
2019-04-29T23:01:57.582Z,35.13
2019-04-29T23:04:27.668Z,36.35
2019-04-29T23:06:57.942Z,37.50
2019-04-29T23:09:28.199Z,34.75
2019-04-29T23:11:58.091Z,38.08
2019-04-29T23:14:28.400Z,34.25
2019-04-29T23:16:59.039Z,33.20
2019-04-29T23:19:29.260Z,35.38
2019-04-29T23:22:22.612Z,36.68
2019-04-29T23:24:59.441Z,38.23
2019-04-29T23:27:29.461Z,38.35
2019-04-29T23:29:59.736Z,35.58
2019-04-29T23:32:30.442Z,41.73
2019-04-29T23:35:01.715Z,41.15
2019-04-29T23:37:36.532Z,41.90
2019-04-29T23:40:10.420Z,42.30
2019-04-29T23:42:43.670Z,41.02
2019-04-29T23:45:14.556Z,44.73
2019-04-29T23:47:46.840Z,35.90
2019-04-29T23:50:18.602Z,40.70
2019-04-29T23:52:51.895Z,46.10
2019-04-29T23:55:24.973Z,45.83
2019-04-29T23:58:03.756Z,48.95
